sensor_id;sensor_type;location;lat;lon;timestamp;pressure;altitude;pressure_sealevel;temperature;humidity
35577;BME280;21680;52.400;16.920;2023-03-01T00:01:22;102253.17;;;-2.11;65.92
35577;BME280;21680;52.400;16.920;2023-03-01T00:03:48;102253.55;;;-2.15;66.16
35577;BME280;21680;52.400;16.920;2023-03-01T00:06:14;102250.61;;;-2.19;66.11
35577;BME280;21680;52.400;16.920;2023-03-01T00:08:40;102249.73;;;-2.24;66.18
35577;BME280;21680;52.400;16.920;2023-03-01T00:13:37;102250.89;;;-2.31;66.34
35577;BME280;21680;52.400;16.920;2023-03-01T00:16:09;102251.15;;;-2.34;66.40
35577;BME280;21680;52.400;16.920;2023-03-01T00:18:35;102250.36;;;-2.36;66.26
35577;BME280;21680;52.400;16.920;2023-03-01T00:21:01;102246.41;;;-2.39;66.24
35577;BME280;21680;52.400;16.920;2023-03-01T00:23:27;102245.59;;;-2.42;66.37
35577;BME280;21680;52.400;16.920;2023-03-01T00:25:53;102244.44;;;-2.46;66.39
35577;BME280;21680;52.400;16.920;2023-03-01T00:28:19;102243.30;;;-2.48;66.42
35577;BME280;21680;52.400;16.920;2023-03-01T00:30:44;102238.41;;;-2.47;66.71
35577;BME280;21680;52.400;16.920;2023-03-01T00:33:10;102237.77;;;-2.46;66.69
35577;BME280;21680;52.400;16.920;2023-03-01T00:35:35;102232.52;;;-2.46;66.64
35577;BME280;21680;52.400;16.920;2023-03-01T00:38:01;102229.17;;;-2.46;66.74
35577;BME280;21680;52.400;16.920;2023-03-01T00:40:29;102225.99;;;-2.47;66.73
35577;BME280;21680;52.400;16.920;2023-03-01T00:42:54;102224.88;;;-2.49;66.51
35577;BME280;21680;52.400;16.920;2023-03-01T00:45:20;102222.88;;;-2.51;66.72
35577;BME280;21680;52.400;16.920;2023-03-01T00:47:46;102219.27;;;-2.54;66.99
35577;BME280;21680;52.400;16.920;2023-03-01T00:50:11;102217.45;;;-2.56;66.95
35577;BME280;21680;52.400;16.920;2023-03-01T00:52:37;102212.09;;;-2.60;66.95
35577;BME280;21680;52.400;16.920;2023-03-01T00:55:03;102210.55;;;-2.64;66.82
35577;BME280;21680;52.400;16.920;2023-03-01T00:57:29;102215.36;;;-2.67;67.06
35577;BME280;21680;52.400;16.920;2023-03-01T00:59:55;102213.33;;;-2.70;67.02
35577;BME280;21680;52.400;16.920;2023-03-01T01:02:20;102213.76;;;-2.73;67.31
35577;BME280;21680;52.400;16.920;2023-03-01T01:04:46;102212.28;;;-2.75;67.21
35577;BME280;21680;52.400;16.920;2023-03-01T01:07:13;102213.81;;;-2.76;67.12
35577;BME280;21680;52.400;16.920;2023-03-01T01:09:39;102211.19;;;-2.75;67.55
35577;BME280;21680;52.400;16.920;2023-03-01T01:12:05;102201.38;;;-2.76;67.21
35577;BME280;21680;52.400;16.920;2023-03-01T01:14:30;102199.65;;;-2.75;67.94
35577;BME280;21680;52.400;16.920;2023-03-01T01:16:56;102197.92;;;-2.75;67.73
35577;BME280;21680;52.400;16.920;2023-03-01T01:19:22;102194.39;;;-2.76;67.31
35577;BME280;21680;52.400;16.920;2023-03-01T01:21:48;102199.36;;;-2.74;67.50
35577;BME280;21680;52.400;16.920;2023-03-01T01:24:15;102203.98;;;-2.72;67.65
35577;BME280;21680;52.400;16.920;2023-03-01T01:26:41;102201.45;;;-2.69;67.46
35577;BME280;21680;52.400;16.920;2023-03-01T01:29:08;102198.22;;;-2.72;67.68
35577;BME280;21680;52.400;16.920;2023-03-01T01:31:35;102198.61;;;-2.75;67.79
35577;BME280;21680;52.400;16.920;2023-03-01T01:34:03;102198.45;;;-2.80;67.47
35577;BME280;21680;52.400;16.920;2023-03-01T01:36:30;102199.20;;;-2.83;67.95
35577;BME280;21680;52.400;16.920;2023-03-01T01:38:56;102198.30;;;-2.84;67.68
35577;BME280;21680;52.400;16.920;2023-03-01T01:41:25;102200.20;;;-2.84;67.90
35577;BME280;21680;52.400;16.920;2023-03-01T01:44:24;102197.77;;;-2.84;67.98
35577;BME280;21680;52.400;16.920;2023-03-01T01:46:53;102195.64;;;-2.85;68.34
35577;BME280;21680;52.400;16.920;2023-03-01T01:51:48;102191.30;;;-2.89;68.41
35577;BME280;21680;52.400;16.920;2023-03-01T01:54:25;102188.48;;;-2.89;68.25
35577;BME280;21680;52.400;16.920;2023-03-01T01:57:00;102185.14;;;-2.89;68.72
35577;BME280;21680;52.400;16.920;2023-03-01T01:59:30;102179.85;;;-2.91;68.52
35577;BME280;21680;52.400;16.920;2023-03-01T02:01:59;102171.96;;;-2.92;68.59
35577;BME280;21680;52.400;16.920;2023-03-01T02:04:25;102178.96;;;-2.91;68.50
35577;BME280;21680;52.400;16.920;2023-03-01T02:06:58;102181.52;;;-2.93;68.37
35577;BME280;21680;52.400;16.920;2023-03-01T02:09:26;102180.09;;;-2.95;68.92
35577;BME280;21680;52.400;16.920;2023-03-01T02:11:53;102175.17;;;-2.95;68.72
35577;BME280;21680;52.400;16.920;2023-03-01T02:14:19;102171.63;;;-2.96;68.59
35577;BME280;21680;52.400;16.920;2023-03-01T02:16:44;102162.98;;;-2.98;68.65
35577;BME280;21680;52.400;16.920;2023-03-01T02:19:17;102151.62;;;-2.98;68.99
35577;BME280;21680;52.400;16.920;2023-03-01T02:22:01;102145.23;;;-3.01;68.78
35577;BME280;21680;52.400;16.920;2023-03-01T02:27:10;102134.80;;;-3.09;68.76
35577;BME280;21680;52.400;16.920;2023-03-01T02:29:35;102140.52;;;-3.10;68.80
35577;BME280;21680;52.400;16.920;2023-03-01T02:32:02;102139.82;;;-3.10;69.08
35577;BME280;21680;52.400;16.920;2023-03-01T02:34:30;102139.13;;;-3.10;69.07
35577;BME280;21680;52.400;16.920;2023-03-01T02:37:00;102131.95;;;-3.10;69.17
35577;BME280;21680;52.400;16.920;2023-03-01T02:39:33;102135.62;;;-3.10;69.36
35577;BME280;21680;52.400;16.920;2023-03-01T02:42:01;102132.64;;;-3.10;69.24
35577;BME280;21680;52.400;16.920;2023-03-01T02:44:27;102130.52;;;-3.11;69.24
35577;BME280;21680;52.400;16.920;2023-03-01T02:46:55;102126.13;;;-3.12;69.33
35577;BME280;21680;52.400;16.920;2023-03-01T02:49:23;102122.77;;;-3.13;68.86
35577;BME280;21680;52.400;16.920;2023-03-01T02:54:58;102117.76;;;-3.16;69.16
35577;BME280;21680;52.400;16.920;2023-03-01T02:57:27;102123.34;;;-3.16;69.39
35577;BME280;21680;52.400;16.920;2023-03-01T02:59:54;102130.84;;;-3.16;69.60
35577;BME280;21680;52.400;16.920;2023-03-01T03:02:27;102132.02;;;-3.17;69.89
35577;BME280;21680;52.400;16.920;2023-03-01T03:07:34;102127.11;;;-3.18;69.64
35577;BME280;21680;52.400;16.920;2023-03-01T03:10:01;102126.52;;;-3.20;69.96
35577;BME280;21680;52.400;16.920;2023-03-01T03:12:27;102127.23;;;-3.20;69.67
35577;BME280;21680;52.400;16.920;2023-03-01T03:14:52;102124.25;;;-3.20;69.66
35577;BME280;21680;52.400;16.920;2023-03-01T03:17:18;102124.92;;;-3.21;69.61
35577;BME280;21680;52.400;16.920;2023-03-01T03:19:43;102118.20;;;-3.23;69.91
35577;BME280;21680;52.400;16.920;2023-03-01T03:22:11;102114.11;;;-3.25;69.94
35577;BME280;21680;52.400;16.920;2023-03-01T03:24:37;102113.11;;;-3.23;69.80
35577;BME280;21680;52.400;16.920;2023-03-01T03:27:04;102116.12;;;-3.22;70.17
35577;BME280;21680;52.400;16.920;2023-03-01T03:29:29;102116.85;;;-3.21;70.13
35577;BME280;21680;52.400;16.920;2023-03-01T03:31:54;102114.10;;;-3.20;70.02
35577;BME280;21680;52.400;16.920;2023-03-01T03:34:20;102108.00;;;-3.20;70.09
35577;BME280;21680;52.400;16.920;2023-03-01T03:36:45;102109.58;;;-3.19;70.03
35577;BME280;21680;52.400;16.920;2023-03-01T03:39:10;102108.50;;;-3.20;69.80
35577;BME280;21680;52.400;16.920;2023-03-01T03:41:35;102106.19;;;-3.21;70.04
35577;BME280;21680;52.400;16.920;2023-03-01T03:44:01;102112.97;;;-3.22;70.24
35577;BME280;21680;52.400;16.920;2023-03-01T03:46:26;102114.11;;;-3.25;70.41
35577;BME280;21680;52.400;16.920;2023-03-01T03:48:51;102122.09;;;-3.27;70.23
35577;BME280;21680;52.400;16.920;2023-03-01T03:51:17;102125.34;;;-3.28;70.29
35577;BME280;21680;52.400;16.920;2023-03-01T03:53:44;102115.84;;;-3.31;70.23
35577;BME280;21680;52.400;16.920;2023-03-01T03:56:10;102110.47;;;-3.34;70.20
35577;BME280;21680;52.400;16.920;2023-03-01T03:58:36;102109.41;;;-3.38;70.27
35577;BME280;21680;52.400;16.920;2023-03-01T04:01:01;102107.59;;;-3.41;70.66
35577;BME280;21680;52.400;16.920;2023-03-01T04:03:28;102109.13;;;-3.42;70.55
35577;BME280;21680;52.400;16.920;2023-03-01T04:05:53;102109.82;;;-3.42;70.46
35577;BME280;21680;52.400;16.920;2023-03-01T04:08:20;102110.13;;;-3.43;70.58
35577;BME280;21680;52.400;16.920;2023-03-01T04:10:49;102104.35;;;-3.43;70.46
35577;BME280;21680;52.400;16.920;2023-03-01T04:13:20;102105.58;;;-3.43;70.61
35577;BME280;21680;52.400;16.920;2023-03-01T04:15:49;102103.84;;;-3.43;70.51
35577;BME280;21680;52.400;16.920;2023-03-01T04:18:15;102100.13;;;-3.44;70.41
35577;BME280;21680;52.400;16.920;2023-03-01T04:20:42;102098.20;;;-3.44;70.64
35577;BME280;21680;52.400;16.920;2023-03-01T04:23:10;102099.27;;;-3.43;70.63
35577;BME280;21680;52.400;16.920;2023-03-01T04:28:04;102101.56;;;-3.43;70.62
35577;BME280;21680;52.400;16.920;2023-03-01T04:30:29;102100.80;;;-3.45;70.82
35577;BME280;21680;52.400;16.920;2023-03-01T04:33:06;102100.13;;;-3.44;70.90
35577;BME280;21680;52.400;16.920;2023-03-01T04:35:35;102102.76;;;-3.44;70.86
35577;BME280;21680;52.400;16.920;2023-03-01T04:38:01;102107.48;;;-3.44;70.89
35577;BME280;21680;52.400;16.920;2023-03-01T04:40:26;102106.58;;;-3.44;70.94
35577;BME280;21680;52.400;16.920;2023-03-01T04:42:52;102108.02;;;-3.43;71.24
35577;BME280;21680;52.400;16.920;2023-03-01T04:45:17;102106.78;;;-3.44;71.16
35577;BME280;21680;52.400;16.920;2023-03-01T04:47:44;102106.23;;;-3.44;70.80
35577;BME280;21680;52.400;16.920;2023-03-01T04:50:13;102104.45;;;-3.45;71.05
35577;BME280;21680;52.400;16.920;2023-03-01T04:52:39;102104.32;;;-3.44;71.07
35577;BME280;21680;52.400;16.920;2023-03-01T04:55:05;102101.71;;;-3.44;71.08
35577;BME280;21680;52.400;16.920;2023-03-01T04:57:31;102099.09;;;-3.44;71.15
35577;BME280;21680;52.400;16.920;2023-03-01T04:59:57;102100.24;;;-3.45;71.19
35577;BME280;21680;52.400;16.920;2023-03-01T05:02:22;102098.42;;;-3.47;71.26
35577;BME280;21680;52.400;16.920;2023-03-01T05:04:47;102097.38;;;-3.47;71.18
35577;BME280;21680;52.400;16.920;2023-03-01T05:07:13;102099.80;;;-3.48;71.35
35577;BME280;21680;52.400;16.920;2023-03-01T05:09:45;102100.30;;;-3.48;71.26
35577;BME280;21680;52.400;16.920;2023-03-01T05:12:12;102097.48;;;-3.49;71.65
35577;BME280;21680;52.400;16.920;2023-03-01T05:14:37;102099.60;;;-3.49;71.68
35577;BME280;21680;52.400;16.920;2023-03-01T05:17:03;102096.74;;;-3.50;71.18
35577;BME280;21680;52.400;16.920;2023-03-01T05:19:29;102096.70;;;-3.51;71.45
35577;BME280;21680;52.400;16.920;2023-03-01T05:21:56;102096.88;;;-3.51;71.50
35577;BME280;21680;52.400;16.920;2023-03-01T05:24:33;102096.92;;;-3.50;71.66
35577;BME280;21680;52.400;16.920;2023-03-01T05:26:58;102099.52;;;-3.51;71.69
35577;BME280;21680;52.400;16.920;2023-03-01T05:29:25;102098.96;;;-3.51;71.66
35577;BME280;21680;52.400;16.920;2023-03-01T05:31:56;102103.11;;;-3.53;71.64
35577;BME280;21680;52.400;16.920;2023-03-01T05:34:26;102102.38;;;-3.54;71.67
35577;BME280;21680;52.400;16.920;2023-03-01T05:36:52;102101.86;;;-3.54;72.06
35577;BME280;21680;52.400;16.920;2023-03-01T05:39:22;102101.40;;;-3.56;71.94
35577;BME280;21680;52.400;16.920;2023-03-01T05:41:52;102102.95;;;-3.57;71.96
35577;BME280;21680;52.400;16.920;2023-03-01T05:44:17;102106.96;;;-3.57;72.02
35577;BME280;21680;52.400;16.920;2023-03-01T05:46:43;102112.53;;;-3.58;71.86
35577;BME280;21680;52.400;16.920;2023-03-01T05:49:08;102112.83;;;-3.60;71.81
35577;BME280;21680;52.400;16.920;2023-03-01T05:51:33;102113.65;;;-3.61;71.83
35577;BME280;21680;52.400;16.920;2023-03-01T05:53:59;102113.64;;;-3.62;71.79
35577;BME280;21680;52.400;16.920;2023-03-01T05:56:24;102116.23;;;-3.62;72.12
35577;BME280;21680;52.400;16.920;2023-03-01T05:58:49;102107.66;;;-3.62;71.96
35577;BME280;21680;52.400;16.920;2023-03-01T06:01:15;102107.48;;;-3.63;71.93
35577;BME280;21680;52.400;16.920;2023-03-01T06:03:40;102101.19;;;-3.63;72.11
35577;BME280;21680;52.400;16.920;2023-03-01T06:06:06;102101.88;;;-3.63;72.25
35577;BME280;21680;52.400;16.920;2023-03-01T06:08:31;102099.88;;;-3.65;72.06
35577;BME280;21680;52.400;16.920;2023-03-01T06:10:56;102094.65;;;-3.65;72.04
35577;BME280;21680;52.400;16.920;2023-03-01T06:13:23;102093.63;;;-3.64;72.01
35577;BME280;21680;52.400;16.920;2023-03-01T06:15:48;102093.73;;;-3.61;72.33
35577;BME280;21680;52.400;16.920;2023-03-01T06:18:14;102092.25;;;-3.58;72.04
35577;BME280;21680;52.400;16.920;2023-03-01T06:20:39;102088.80;;;-3.57;72.29
35577;BME280;21680;52.400;16.920;2023-03-01T06:23:05;102093.40;;;-3.56;72.24
35577;BME280;21680;52.400;16.920;2023-03-01T06:25:30;102097.48;;;-3.54;72.50
35577;BME280;21680;52.400;16.920;2023-03-01T06:27:56;102098.72;;;-3.49;72.19
35577;BME280;21680;52.400;16.920;2023-03-01T06:30:24;102094.31;;;-3.45;72.27
35577;BME280;21680;52.400;16.920;2023-03-01T06:32:50;102087.35;;;-3.44;72.36
35577;BME280;21680;52.400;16.920;2023-03-01T06:35:16;102086.09;;;-3.41;72.55
35577;BME280;21680;52.400;16.920;2023-03-01T06:37:43;102081.56;;;-3.36;72.46
35577;BME280;21680;52.400;16.920;2023-03-01T06:40:10;102079.81;;;-3.31;72.64
35577;BME280;21680;52.400;16.920;2023-03-01T06:42:38;102081.70;;;-3.27;72.92
35577;BME280;21680;52.400;16.920;2023-03-01T06:45:04;102086.59;;;-3.22;72.90
35577;BME280;21680;52.400;16.920;2023-03-01T06:47:30;102087.10;;;-3.17;72.95
35577;BME280;21680;52.400;16.920;2023-03-01T06:49:56;102083.26;;;-3.13;72.87
35577;BME280;21680;52.400;16.920;2023-03-01T06:52:21;102080.69;;;-3.06;73.00
35577;BME280;21680;52.400;16.920;2023-03-01T06:54:46;102077.39;;;-3.01;73.02
35577;BME280;21680;52.400;16.920;2023-03-01T06:57:12;102079.88;;;-2.94;72.96
35577;BME280;21680;52.400;16.920;2023-03-01T06:59:37;102075.06;;;-2.86;72.85
35577;BME280;21680;52.400;16.920;2023-03-01T07:02:02;102074.67;;;-2.78;72.95
35577;BME280;21680;52.400;16.920;2023-03-01T07:04:27;102078.65;;;-2.69;72.87
35577;BME280;21680;52.400;16.920;2023-03-01T07:06:56;102082.23;;;-2.60;73.13
35577;BME280;21680;52.400;16.920;2023-03-01T07:09:22;102081.77;;;-2.53;72.99
35577;BME280;21680;52.400;16.920;2023-03-01T07:11:48;102081.55;;;-2.44;73.32
35577;BME280;21680;52.400;16.920;2023-03-01T07:14:14;102087.32;;;-2.33;73.29
35577;BME280;21680;52.400;16.920;2023-03-01T07:16:39;102084.89;;;-2.21;73.32
35577;BME280;21680;52.400;16.920;2023-03-01T07:19:04;102083.75;;;-2.07;73.37
35577;BME280;21680;52.400;16.920;2023-03-01T07:21:31;102083.72;;;-1.97;73.15
35577;BME280;21680;52.400;16.920;2023-03-01T07:23:56;102089.80;;;-1.87;73.14
35577;BME280;21680;52.400;16.920;2023-03-01T07:26:22;102092.89;;;-1.78;73.23
35577;BME280;21680;52.400;16.920;2023-03-01T07:28:47;102088.62;;;-1.68;73.40
35577;BME280;21680;52.400;16.920;2023-03-01T07:31:12;102090.18;;;-1.57;73.50
35577;BME280;21680;52.400;16.920;2023-03-01T07:33:38;102089.79;;;-1.46;73.27
35577;BME280;21680;52.400;16.920;2023-03-01T07:36:04;102089.87;;;-1.37;73.43
35577;BME280;21680;52.400;16.920;2023-03-01T07:38:30;102087.48;;;-1.28;73.35
35577;BME280;21680;52.400;16.920;2023-03-01T07:41:00;102084.36;;;-1.21;73.22
35577;BME280;21680;52.400;16.920;2023-03-01T07:43:28;102084.75;;;-1.13;73.40
35577;BME280;21680;52.400;16.920;2023-03-01T07:45:53;102084.48;;;-1.04;73.42
35577;BME280;21680;52.400;16.920;2023-03-01T07:48:19;102086.17;;;-0.93;73.40
35577;BME280;21680;52.400;16.920;2023-03-01T07:50:44;102084.73;;;-0.81;73.40
35577;BME280;21680;52.400;16.920;2023-03-01T07:53:09;102086.55;;;-0.72;73.35
35577;BME280;21680;52.400;16.920;2023-03-01T07:55:36;102091.55;;;-0.62;73.46
35577;BME280;21680;52.400;16.920;2023-03-01T07:58:01;102087.42;;;-0.51;73.36
35577;BME280;21680;52.400;16.920;2023-03-01T08:00:26;102089.95;;;-0.42;73.55
35577;BME280;21680;52.400;16.920;2023-03-01T08:02:51;102090.04;;;-0.31;73.27
35577;BME280;21680;52.400;16.920;2023-03-01T08:05:17;102093.48;;;-0.19;73.32
35577;BME280;21680;52.400;16.920;2023-03-01T08:07:42;102086.10;;;-0.12;73.20
35577;BME280;21680;52.400;16.920;2023-03-01T08:10:08;102086.27;;;-0.04;73.18
35577;BME280;21680;52.400;16.920;2023-03-01T08:12:34;102084.50;;;0.04;73.24
35577;BME280;21680;52.400;16.920;2023-03-01T08:14:59;102076.45;;;0.13;73.16
35577;BME280;21680;52.400;16.920;2023-03-01T08:17:25;102078.20;;;0.21;73.08
35577;BME280;21680;52.400;16.920;2023-03-01T08:19:50;102078.20;;;0.29;73.00
35577;BME280;21680;52.400;16.920;2023-03-01T08:22:15;102075.02;;;0.37;72.99
35577;BME280;21680;52.400;16.920;2023-03-01T08:24:40;102073.95;;;0.45;72.91
35577;BME280;21680;52.400;16.920;2023-03-01T08:27:06;102074.10;;;0.52;72.77
35577;BME280;21680;52.400;16.920;2023-03-01T08:29:32;102066.67;;;0.58;72.69
35577;BME280;21680;52.400;16.920;2023-03-01T08:31:58;102070.51;;;0.66;72.52
35577;BME280;21680;52.400;16.920;2023-03-01T08:34:23;102068.89;;;0.72;72.25
35577;BME280;21680;52.400;16.920;2023-03-01T08:36:48;102065.34;;;0.80;72.40
35577;BME280;21680;52.400;16.920;2023-03-01T08:39:16;102065.86;;;0.88;72.24
35577;BME280;21680;52.400;16.920;2023-03-01T08:41:43;102067.77;;;0.97;71.94
35577;BME280;21680;52.400;16.920;2023-03-01T08:44:09;102067.19;;;1.04;72.03
35577;BME280;21680;52.400;16.920;2023-03-01T08:46:41;102063.81;;;1.11;71.87
35577;BME280;21680;52.400;16.920;2023-03-01T08:49:09;102052.70;;;1.20;71.85
35577;BME280;21680;52.400;16.920;2023-03-01T08:51:36;102050.73;;;1.28;72.01
35577;BME280;21680;52.400;16.920;2023-03-01T08:54:06;102051.27;;;1.40;71.75
35577;BME280;21680;52.400;16.920;2023-03-01T08:56:32;102051.11;;;1.51;71.66
35577;BME280;21680;52.400;16.920;2023-03-01T08:58:57;102051.25;;;1.59;71.39
35577;BME280;21680;52.400;16.920;2023-03-01T09:01:23;102050.28;;;1.65;71.36
35577;BME280;21680;52.400;16.920;2023-03-01T09:03:48;102047.00;;;1.69;71.21
35577;BME280;21680;52.400;16.920;2023-03-01T09:06:14;102050.07;;;1.75;71.04
35577;BME280;21680;52.400;16.920;2023-03-01T09:08:43;102047.34;;;1.80;70.72
35577;BME280;21680;52.400;16.920;2023-03-01T09:11:11;102042.16;;;1.88;70.70
35577;BME280;21680;52.400;16.920;2023-03-01T09:13:37;102038.59;;;1.96;70.61
35577;BME280;21680;52.400;16.920;2023-03-01T09:16:04;102033.41;;;2.05;70.39
35577;BME280;21680;52.400;16.920;2023-03-01T09:18:30;102030.17;;;2.12;70.38
35577;BME280;21680;52.400;16.920;2023-03-01T09:21:13;102022.33;;;2.19;69.98
35577;BME280;21680;52.400;16.920;2023-03-01T09:23:41;102019.23;;;2.25;69.94
35577;BME280;21680;52.400;16.920;2023-03-01T09:26:16;102021.77;;;2.32;69.68
35577;BME280;21680;52.400;16.920;2023-03-01T09:28:45;102020.98;;;2.39;69.38
35577;BME280;21680;52.400;16.920;2023-03-01T09:31:14;102027.25;;;2.47;69.50
35577;BME280;21680;52.400;16.920;2023-03-01T09:33:40;102028.02;;;2.53;68.94
35577;BME280;21680;52.400;16.920;2023-03-01T09:36:09;102029.48;;;2.56;68.42
35577;BME280;21680;52.400;16.920;2023-03-01T09:38:35;102030.61;;;2.65;68.51
35577;BME280;21680;52.400;16.920;2023-03-01T09:41:01;102031.23;;;2.73;68.32
35577;BME280;21680;52.400;16.920;2023-03-01T09:46:07;102030.43;;;2.81;68.00
35577;BME280;21680;52.400;16.920;2023-03-01T09:48:42;102025.52;;;2.83;67.92
35577;BME280;21680;52.400;16.920;2023-03-01T09:51:14;102021.65;;;2.85;67.95
35577;BME280;21680;52.400;16.920;2023-03-01T09:53:41;102014.27;;;2.88;67.42
35577;BME280;21680;52.400;16.920;2023-03-01T09:56:24;102013.77;;;2.91;67.58
35577;BME280;21680;52.400;16.920;2023-03-01T10:07:03;102019.84;;;3.18;67.22
35577;BME280;21680;52.400;16.920;2023-03-01T10:09:37;102019.16;;;3.22;67.11
35577;BME280;21680;52.400;16.920;2023-03-01T10:12:09;102019.02;;;3.25;66.77
35577;BME280;21680;52.400;16.920;2023-03-01T10:14:39;102015.16;;;3.30;66.71
35577;BME280;21680;52.400;16.920;2023-03-01T10:17:14;102015.95;;;3.38;66.65
35577;BME280;21680;52.400;16.920;2023-03-01T10:19:46;102016.91;;;3.48;66.59
35577;BME280;21680;52.400;16.920;2023-03-01T10:22:28;102011.66;;;3.55;66.11
35577;BME280;21680;52.400;16.920;2023-03-01T10:24:57;102009.06;;;3.62;66.49
35577;BME280;21680;52.400;16.920;2023-03-01T10:27:24;102007.35;;;3.72;66.50
35577;BME280;21680;52.400;16.920;2023-03-01T10:30:17;102010.96;;;3.82;66.64
35577;BME280;21680;52.400;16.920;2023-03-01T10:32:45;102008.91;;;3.92;66.42
35577;BME280;21680;52.400;16.920;2023-03-01T10:35:19;102008.42;;;4.02;66.63
35577;BME280;21680;52.400;16.920;2023-03-01T10:38:10;102004.05;;;4.10;66.30
35577;BME280;21680;52.400;16.920;2023-03-01T10:40:50;102005.67;;;4.15;66.16
35577;BME280;21680;52.400;16.920;2023-03-01T10:43:16;101995.06;;;4.18;66.24
35577;BME280;21680;52.400;16.920;2023-03-01T10:45:42;101992.79;;;4.25;66.29
35577;BME280;21680;52.400;16.920;2023-03-01T10:53:24;101979.40;;;4.41;65.88
35577;BME280;21680;52.400;16.920;2023-03-01T10:55:59;101981.70;;;4.39;65.61
35577;BME280;21680;52.400;16.920;2023-03-01T10:58:25;101980.64;;;4.41;65.37
35577;BME280;21680;52.400;16.920;2023-03-01T11:03:27;101972.71;;;4.55;65.50
35577;BME280;21680;52.400;16.920;2023-03-01T11:11:06;101966.23;;;4.84;65.19
35577;BME280;21680;52.400;16.920;2023-03-01T11:13:33;101964.29;;;4.93;65.12
35577;BME280;21680;52.400;16.920;2023-03-01T11:16:11;101963.77;;;5.05;65.22
35577;BME280;21680;52.400;16.920;2023-03-01T11:18:37;101962.34;;;5.14;65.10
35577;BME280;21680;52.400;16.920;2023-03-01T11:21:03;101964.48;;;5.19;64.98
35577;BME280;21680;52.400;16.920;2023-03-01T11:23:30;101953.98;;;5.22;65.04
35577;BME280;21680;52.400;16.920;2023-03-01T11:26:05;101945.11;;;5.33;64.95
35577;BME280;21680;52.400;16.920;2023-03-01T11:28:35;101943.68;;;5.39;64.55
35577;BME280;21680;52.400;16.920;2023-03-01T11:31:10;101940.49;;;5.40;64.03
35577;BME280;21680;52.400;16.920;2023-03-01T11:33:48;101940.14;;;5.45;64.33
35577;BME280;21680;52.400;16.920;2023-03-01T11:36:27;101941.36;;;5.52;64.26
35577;BME280;21680;52.400;16.920;2023-03-01T11:38:55;101941.70;;;5.60;64.18
35577;BME280;21680;52.400;16.920;2023-03-01T11:41:30;101942.56;;;5.69;64.13
35577;BME280;21680;52.400;16.920;2023-03-01T11:49:33;101929.80;;;5.66;63.55
35577;BME280;21680;52.400;16.920;2023-03-01T11:52:24;101922.84;;;5.81;63.49
35577;BME280;21680;52.400;16.920;2023-03-01T11:55:43;101920.88;;;5.85;63.47
35577;BME280;21680;52.400;16.920;2023-03-01T12:12:45;101910.71;;;6.39;62.82
35577;BME280;21680;52.400;16.920;2023-03-01T12:15:09;101909.04;;;6.52;62.91
35577;BME280;21680;52.400;16.920;2023-03-01T12:20:32;101903.27;;;6.89;63.03
35577;BME280;21680;52.400;16.920;2023-03-01T12:25:46;101887.02;;;7.35;62.76
35577;BME280;21680;52.400;16.920;2023-03-01T12:28:24;101882.79;;;7.48;62.86
35577;BME280;21680;52.400;16.920;2023-03-01T12:31:46;101874.64;;;7.61;62.39
35577;BME280;21680;52.400;16.920;2023-03-01T12:34:34;101869.86;;;7.59;62.25
35577;BME280;21680;52.400;16.920;2023-03-01T12:37:23;101866.85;;;7.58;61.69
35577;BME280;21680;52.400;16.920;2023-03-01T12:42:34;101863.16;;;7.94;62.41
35577;BME280;21680;52.400;16.920;2023-03-01T12:45:41;101865.98;;;8.10;61.00
35577;BME280;21680;52.400;16.920;2023-03-01T12:50:43;101860.48;;;8.09;61.30
35577;BME280;21680;52.400;16.920;2023-03-01T12:53:26;101865.00;;;8.55;61.36
35577;BME280;21680;52.400;16.920;2023-03-01T12:55:55;101861.99;;;8.87;60.95
35577;BME280;21680;52.400;16.920;2023-03-01T13:01:22;101855.25;;;9.15;60.65
35577;BME280;21680;52.400;16.920;2023-03-01T13:04:17;101854.47;;;9.19;59.32
35577;BME280;21680;52.400;16.920;2023-03-01T13:07:55;101858.31;;;9.33;59.74
35577;BME280;21680;52.400;16.920;2023-03-01T13:12:50;101847.80;;;10.27;60.30
35577;BME280;21680;52.400;16.920;2023-03-01T13:20:24;101832.05;;;10.99;59.36
35577;BME280;21680;52.400;16.920;2023-03-01T13:23:03;101827.30;;;11.03;59.38
35577;BME280;21680;52.400;16.920;2023-03-01T13:25:30;101819.77;;;11.30;59.65
35577;BME280;21680;52.400;16.920;2023-03-01T13:30:59;101820.98;;;11.76;58.54
35577;BME280;21680;52.400;16.920;2023-03-01T13:35:54;101811.46;;;11.95;58.70
35577;BME280;21680;52.400;16.920;2023-03-01T13:38:55;101813.12;;;11.99;58.27
35577;BME280;21680;52.400;16.920;2023-03-01T13:44:30;101815.30;;;11.98;57.83
35577;BME280;21680;52.400;16.920;2023-03-01T13:49:48;101809.27;;;12.53;57.35
35577;BME280;21680;52.400;16.920;2023-03-01T13:52:38;101805.81;;;12.43;56.78
35577;BME280;21680;52.400;16.920;2023-03-01T13:55:19;101801.15;;;12.49;56.86
35577;BME280;21680;52.400;16.920;2023-03-01T13:57:49;101795.14;;;12.51;56.49
35577;BME280;21680;52.400;16.920;2023-03-01T14:00:29;101798.83;;;12.43;56.11
35577;BME280;21680;52.400;16.920;2023-03-01T14:03:17;101800.10;;;12.37;56.06
35577;BME280;21680;52.400;16.920;2023-03-01T14:06:01;101803.75;;;12.18;55.27
35577;BME280;21680;52.400;16.920;2023-03-01T14:08:29;101805.02;;;11.94;54.37
35577;BME280;21680;52.400;16.920;2023-03-01T14:17:05;101800.59;;;11.12;53.11
35577;BME280;21680;52.400;16.920;2023-03-01T14:19:34;101798.28;;;11.56;53.47
35577;BME280;21680;52.400;16.920;2023-03-01T14:22:24;101799.52;;;11.62;53.62
35577;BME280;21680;52.400;16.920;2023-03-01T14:24:54;101794.88;;;11.74;53.51
35577;BME280;21680;52.400;16.920;2023-03-01T14:27:20;101797.98;;;11.85;53.63
35577;BME280;21680;52.400;16.920;2023-03-01T14:29:58;101793.66;;;11.92;53.38
35577;BME280;21680;52.400;16.920;2023-03-01T14:32:26;101796.16;;;11.86;53.28